Geervliet — PCLI — position and weather

sailwx.info

Track history (hours):
 
Tides and Currents Weather Stations Pressure Air Temp Water Temp Dewpoint Dewpoint Depression Visibility Wind Speed Wind Dir Waves Ship Positions

Geervliet

Last reported at 2015-Jul-26 02:23 UTC. Time now 2015-Jul-31 15:23 UTC.
Position N 37°52' E 015°56'.

Length 86 m; draft 5.2 m.

Type: Cargo ship. MMSI: 246803000.

Date/timePositionNaut miles runAvg speedWind from/ knotsBaromVisibWave heightAir tempDewpointWater temp
2015-Jul-26 02:23N 37°52' E 015°56'8 9.2
2015-Jul-26 01:33N 37°52' E 015°46'9 8.8
2015-Jul-26 00:33N 37°58' E 015°37'9 9.1
2015-Jul-25 23:33N 38°06' E 015°34'9 9.0
2015-Jul-25 22:33N 38°15' E 015°38'6 6.3
2015-Jul-25 21:33N 38°20' E 015°33'9 8.9
2015-Jul-25 20:33N 38°19' E 015°22'9 9.2
2015-Jul-25 19:33N 38°19' E 015°10'10 9.4
2015-Jul-25 18:32N 38°18' E 014°58'10 9.6
2015-Jul-25 17:33N 38°18' E 014°46'1110.2
2015-Jul-25 16:30N 38°18' E 014°32'40 9.8
2015-Jul-25 12:27N 38°17' E 013°41'9 9.6
2015-Jul-25 11:33N 38°16' E 013°30'10 9.6
2015-Jul-25 10:32N 38°16' E 013°18'30 9.7
2015-Jul-25 07:28N 38°13' E 012°40'8 9.1
2015-Jul-25 06:33N 38°11' E 012°30'10 9.7
2015-Jul-25 05:32N 38°09' E 012°18'1010.0
2015-Jul-25 04:33N 38°08' E 012°06'34110.0
2015-Jul-23 18:32N 37°15' E 005°00'1110.1
2015-Jul-23 17:27N 37°13' E 004°46'1310.1
2015-Jul-23 16:08N 37°11' E 004°30'6 9.8
2015-Jul-23 15:33N 37°10' E 004°23'3010.1
2015-Jul-23 12:32N 37°06' E 003°45'5210.2
2015-Jul-23 07:27N 36°57' E 002°41'910.2
2015-Jul-23 06:33N 36°56' E 002°29'70 9.9
2015-Jul-22 23:26N 36°45' E 001°03'910.6
2015-Jul-22 22:33N 36°43' E 000°51'1111.1
2015-Jul-22 21:33N 36°41' E 000°38'1010.4
2015-Jul-22 20:33N 36°39' E 000°25'1010.1
2015-Jul-22 19:33N 36°38' E 000°12'1210.3
2015-Jul-22 18:25N 36°36' W 000°02'910.3
2015-Jul-22 17:33N 36°35' W 000°13'1010.4
2015-Jul-22 16:33N 36°33' W 000°26'1010.0
2015-Jul-22 15:33N 36°31' W 000°38'10 9.7
2015-Jul-22 14:33N 36°30' W 000°50'1410.0
2015-Jul-22 13:08N 36°28' W 001°08'6 9.8
2015-Jul-22 12:32N 36°27' W 001°15'22 9.4
2015-Jul-22 10:13N 36°23' W 001°42'7 9.7
2015-Jul-22 09:33N 36°22' W 001°50'10 9.8
2015-Jul-22 08:33N 36°20' W 002°02'1110.2
2015-Jul-22 07:28N 36°18' W 002°15'910.1
2015-Jul-22 06:33N 36°17' W 002°26'  
2015-Jul-17 16:33N 35°59' W 006°37'2110.2
2015-Jul-17 14:33N 36°05' W 007°01'1010.1
2015-Jul-17 13:34N 36°07' W 007°13'30 9.9
2015-Jul-17 10:33N 36°15' W 007°49'1110.3
2015-Jul-17 09:27N 36°18' W 008°03'910.3
2015-Jul-17 08:33N 36°20' W 008°14'1010.1
2015-Jul-17 07:33N 36°23' W 008°26'1010.0
2015-Jul-17 06:33N 36°25' W 008°38'10 9.9
2015-Jul-17 05:33N 36°28' W 008°50'10 9.6
2015-Jul-17 04:33N 36°30' W 009°01'9 9.1
2015-Jul-17 03:34N 36°33' W 009°12'9 8.6
2015-Jul-17 02:33N 36°38' W 009°21'9 8.8
2015-Jul-17 01:34N 36°44' W 009°28'9 9.0
2015-Jul-17 00:34N 36°52' W 009°34'1010.2
2015-Jul-16 23:34N 37°02' W 009°37'1010.4
2015-Jul-16 22:33N 37°12' W 009°39'1010.2
2015-Jul-16 21:33N 37°22' W 009°42'10 9.9
2015-Jul-16 20:33N 37°32' W 009°45'10 9.8
2015-Jul-16 19:33N 37°41' W 009°48'1010.5
2015-Jul-16 18:33N 37°52' W 009°51'1110.8
2015-Jul-16 17:33N 38°02' W 009°54'1110.5
2015-Jul-16 16:33N 38°12' W 009°57'1110.4
2015-Jul-16 15:33N 38°23' W 009°60'1010.3
2015-Jul-16 14:34N 38°33' W 010°03'1110.8
2015-Jul-16 13:34N 38°43' W 010°05'1010.1
2015-Jul-16 12:33N 38°53' W 010°05'1010.0
2015-Jul-16 11:33N 39°03' W 010°06'10 9.8
2015-Jul-16 10:33N 39°13' W 010°07'1010.2
2015-Jul-16 09:33N 39°23' W 010°08'1010.1
2015-Jul-16 08:33N 39°33' W 010°09'1110.0
2015-Jul-16 07:29N 39°44' W 010°09'1010.2
2015-Jul-16 06:33N 39°54' W 010°09'1010.2
2015-Jul-16 05:33N 40°04' W 010°10'1510.7
2015-Jul-16 04:10N 40°19' W 010°10'610.4
2015-Jul-16 03:34N 40°25' W 010°10'  
Track history (hours):
 
Tides and Currents Weather Stations Pressure Air Temp Water Temp Dewpoint Dewpoint Depression Visibility Wind Speed Wind Dir Waves Ship Positions

Geervliet

Last reported at 2015-Jul-26 02:23 UTC. Time now 2015-Jul-31 15:23 UTC.
Position N 37°52' E 015°56'.

Length 86 m; draft 5.2 m.

Type: Cargo ship. MMSI: 246803000.

Date/timePositionNaut miles runAvg speedWind from/ knotsBaromVisibWave heightAir tempDewpointWater temp
2015-Jul-26 02:23N 37°52' E 015°56'8 9.2
2015-Jul-26 01:33N 37°52' E 015°46'9 8.8
2015-Jul-26 00:33N 37°58' E 015°37'9 9.1
2015-Jul-25 23:33N 38°06' E 015°34'9 9.0
2015-Jul-25 22:33N 38°15' E 015°38'6 6.3
2015-Jul-25 21:33N 38°20' E 015°33'9 8.9
2015-Jul-25 20:33N 38°19' E 015°22'9 9.2
2015-Jul-25 19:33N 38°19' E 015°10'10 9.4
2015-Jul-25 18:32N 38°18' E 014°58'10 9.6
2015-Jul-25 17:33N 38°18' E 014°46'1110.2
2015-Jul-25 16:30N 38°18' E 014°32'40 9.8
2015-Jul-25 12:27N 38°17' E 013°41'9 9.6
2015-Jul-25 11:33N 38°16' E 013°30'10 9.6
2015-Jul-25 10:32N 38°16' E 013°18'30 9.7
2015-Jul-25 07:28N 38°13' E 012°40'8 9.1
2015-Jul-25 06:33N 38°11' E 012°30'10 9.7
2015-Jul-25 05:32N 38°09' E 012°18'1010.0
2015-Jul-25 04:33N 38°08' E 012°06'34110.0
2015-Jul-23 18:32N 37°15' E 005°00'1110.1
2015-Jul-23 17:27N 37°13' E 004°46'1310.1
2015-Jul-23 16:08N 37°11' E 004°30'6 9.8
2015-Jul-23 15:33N 37°10' E 004°23'3010.1
2015-Jul-23 12:32N 37°06' E 003°45'5210.2
2015-Jul-23 07:27N 36°57' E 002°41'910.2
2015-Jul-23 06:33N 36°56' E 002°29'70 9.9
2015-Jul-22 23:26N 36°45' E 001°03'910.6
2015-Jul-22 22:33N 36°43' E 000°51'1111.1
2015-Jul-22 21:33N 36°41' E 000°38'1010.4
2015-Jul-22 20:33N 36°39' E 000°25'1010.1
2015-Jul-22 19:33N 36°38' E 000°12'1210.3
2015-Jul-22 18:25N 36°36' W 000°02'910.3
2015-Jul-22 17:33N 36°35' W 000°13'1010.4
2015-Jul-22 16:33N 36°33' W 000°26'1010.0
2015-Jul-22 15:33N 36°31' W 000°38'10 9.7
2015-Jul-22 14:33N 36°30' W 000°50'1410.0
2015-Jul-22 13:08N 36°28' W 001°08'6 9.8
2015-Jul-22 12:32N 36°27' W 001°15'22 9.4
2015-Jul-22 10:13N 36°23' W 001°42'7 9.7
2015-Jul-22 09:33N 36°22' W 001°50'10 9.8
2015-Jul-22 08:33N 36°20' W 002°02'1110.2
2015-Jul-22 07:28N 36°18' W 002°15'910.1
2015-Jul-22 06:33N 36°17' W 002°26'  
2015-Jul-17 16:33N 35°59' W 006°37'2110.2
2015-Jul-17 14:33N 36°05' W 007°01'1010.1
2015-Jul-17 13:34N 36°07' W 007°13'30 9.9
2015-Jul-17 10:33N 36°15' W 007°49'1110.3
2015-Jul-17 09:27N 36°18' W 008°03'910.3
2015-Jul-17 08:33N 36°20' W 008°14'1010.1
2015-Jul-17 07:33N 36°23' W 008°26'1010.0
2015-Jul-17 06:33N 36°25' W 008°38'10 9.9
2015-Jul-17 05:33N 36°28' W 008°50'10 9.6
2015-Jul-17 04:33N 36°30' W 009°01'9 9.1
2015-Jul-17 03:34N 36°33' W 009°12'9 8.6
2015-Jul-17 02:33N 36°38' W 009°21'9 8.8
2015-Jul-17 01:34N 36°44' W 009°28'9 9.0
2015-Jul-17 00:34N 36°52' W 009°34'1010.2
2015-Jul-16 23:34N 37°02' W 009°37'1010.4
2015-Jul-16 22:33N 37°12' W 009°39'1010.2
2015-Jul-16 21:33N 37°22' W 009°42'10 9.9
2015-Jul-16 20:33N 37°32' W 009°45'10 9.8
2015-Jul-16 19:33N 37°41' W 009°48'1010.5
2015-Jul-16 18:33N 37°52' W 009°51'1110.8
2015-Jul-16 17:33N 38°02' W 009°54'1110.5
2015-Jul-16 16:33N 38°12' W 009°57'1110.4
2015-Jul-16 15:33N 38°23' W 009°60'1010.3
2015-Jul-16 14:34N 38°33' W 010°03'1110.8
2015-Jul-16 13:34N 38°43' W 010°05'1010.1
2015-Jul-16 12:33N 38°53' W 010°05'1010.0
2015-Jul-16 11:33N 39°03' W 010°06'10 9.8
2015-Jul-16 10:33N 39°13' W 010°07'1010.2
2015-Jul-16 09:33N 39°23' W 010°08'1010.1
2015-Jul-16 08:33N 39°33' W 010°09'1110.0
2015-Jul-16 07:29N 39°44' W 010°09'1010.2
2015-Jul-16 06:33N 39°54' W 010°09'1010.2
2015-Jul-16 05:33N 40°04' W 010°10'1510.7
2015-Jul-16 04:10N 40°19' W 010°10'610.4
2015-Jul-16 03:34N 40°25' W 010°10'  

Dump ship's entire track history